Yelizovo Airport
UHPP : now visible

Airfield :











YOU CAN JOIN US ON...

 
LOGIN :

Register | Disclaimer

   EN    FR    IT 

 









Legend :    VFR   Marginal VFR   IFR   Intensive IFR   Very Intensive IFR
Visi :
Ceiling :
>= 8 km
>= 3000ft
5 to 8 km
1000 to 3000 ft
1500m to 5 km
500 to 1000 ft
800 to 1500m
200 to 500 ft
< 800m
< 200 ft
Symbols :   Thunderstorms  Fog  Heavy snow  Heavy precipitations  Wind > 20 kt






- Airport Elevation : 131 ft
- IATA code : PKC


UHPP - Yelizovo

CURRENT METAR :
  • 070900Z 18003MPS 9999 NSC 00/M02 Q1015 R34L/CLRD70 NOSIG RMK QFE758/1010

EXPIRED METARs :
  • 070800Z 16004MPS 9999 NSC 01/M03 Q1015 R34L/CLRD70 NOSIG RMK QFE758/1010
  • 070700Z 15004MPS 9999 NSC 01/M04 Q1016 R34L/CLRD70 NOSIG RMK QFE758/1011

TAF TAF UHPP
Valid from the 07 at 09:00 until the 08 at 15:00 UTC


070731Z 0709/0815 02003G12MPS 9999 SCT030CB BKN050
TEMPO 0709/0718 16003G12MPS
FM071800 30003G12MPS 9999 BKN020CB OVC040
TEMPO 0718/0806 02003G12MPS 2000 SHSNRA BKN007 OVC015CB
FM080600 02003G12MPS 9999 NSC



MET'MAP, your aeronautical weather chart ! - Copyright ORBIFLY December 2007 - Disclaimer

ORBIFLY MET'MAP TEAM :

Programming & Development : Alexandra Zaïnal
Concept & original design : Baudouin d'Aumeries
Assistance for programming : Marc-Olivier Méhu
Technical & hardware support : Manuel Goepfert

Contact : metmap@orbifly.com




SOURCES & CREDITS :

   NOAA       Earth
Advisory